Time;durP1;ratioP1;P1;durP2;ratioP2;P2;SDS_P1;SDS_P2;PMS_P1;PMS_P2;Temp;Humidity;BMP_temperature;BMP_pressure;BME280_temperature;BME280_humidity;BME280_pressure;Samples;Min_cycle;Max_cycle;Signal;HPM_P1;HPM_P2
2022/09/17 00:01:31;;;;;;;1.50;0.80;;;;;;;13.30;75.01;98313.81;5031410;27;102773;-69
2022/09/17 00:04:02;;;;;;;1.30;0.90;;;;;;;13.15;75.64;98314.34;5027028;27;103134;-69
2022/09/17 00:06:32;;;;;;;1.20;0.73;;;;;;;13.24;74.43;98319.69;5030612;27;103267;-69
2022/09/17 00:09:00;;;;;;;1.25;0.55;;;;;;;13.28;74.67;98320.25;5042140;27;104247;-69
2022/09/17 00:11:29;;;;;;;0.65;0.65;;;;;;;13.29;75.05;98322.78;5030000;27;102673;-69
2022/09/17 00:14:03;;;;;;;1.60;0.60;;;;;;;13.58;74.07;98320.16;5030121;27;102686;-69
2022/09/17 00:16:34;;;;;;;1.70;0.70;;;;;;;13.55;73.87;98316.94;5026311;27;104282;-69
2022/09/17 00:19:03;;;;;;;1.20;0.70;;;;;;;13.38;74.79;98320.28;5033007;27;102697;-69
2022/09/17 00:21:31;;;;;;;0.77;0.60;;;;;;;13.67;73.85;98321.16;5033023;27;102717;-69
2022/09/17 00:24:01;;;;;;;0.93;0.70;;;;;;;13.48;74.47;98327.25;5024790;27;103907;-69
2022/09/17 00:26:31;;;;;;;1.48;0.80;;;;;;;13.61;74.06;98329.66;5029882;27;103292;-69
2022/09/17 00:29:02;;;;;;;1.63;0.80;;;;;;;13.61;74.06;98321.69;5030177;27;103198;-69
2022/09/17 00:31:31;;;;;;;1.17;0.90;;;;;;;13.36;74.98;98329.19;5032421;27;102975;-69
2022/09/17 00:33:59;;;;;;;1.25;0.70;;;;;;;13.34;75.56;98320.53;5029200;27;103962;-69
2022/09/17 00:36:28;;;;;;;3.85;1.10;;;;;;;13.36;75.67;98321.22;5019954;27;104243;-69
2022/09/17 00:38:57;;;;;;;1.30;0.90;;;;;;;13.54;74.13;98320.56;5025618;27;103079;-69
2022/09/17 00:41:28;;;;;;;1.38;1.00;;;;;;;13.25;75.07;98316.03;5026822;27;102701;-69
2022/09/17 00:44:00;;;;;;;1.17;0.82;;;;;;;13.31;75.80;98318.16;5029091;27;103429;-69
2022/09/17 00:46:35;;;;;;;1.77;1.00;;;;;;;13.36;75.25;98328.38;5032156;27;104243;-69
2022/09/17 00:49:12;;;;;;;1.83;1.20;;;;;;;13.61;74.21;98319.03;5030022;27;103281;-69
2022/09/17 00:51:45;;;;;;;1.23;1.07;;;;;;;13.48;74.73;98315.81;5029708;27;104956;-69
2022/09/17 00:54:13;;;;;;;3.13;1.00;;;;;;;13.31;74.50;98320.81;5034761;27;102783;-69
2022/09/17 00:56:42;;;;;;;2.50;1.00;;;;;;;12.86;75.85;98314.22;5032319;27;104943;-69
2022/09/17 00:59:11;;;;;;;1.20;0.90;;;;;;;13.30;74.78;98313.00;5029332;27;103893;-69
2022/09/17 01:01:42;;;;;;;1.38;0.80;;;;;;;13.44;74.33;98319.72;5022515;27;104817;-69
2022/09/17 01:04:15;;;;;;;1.23;0.80;;;;;;;13.62;73.79;98324.19;5028890;27;102878;-69
2022/09/17 01:06:50;;;;;;;1.20;1.00;;;;;;;13.39;73.99;98329.91;5030053;27;103732;-68
2022/09/17 01:09:29;;;;;;;1.50;1.20;;;;;;;13.27;74.30;98335.34;5029859;27;103328;-69
2022/09/17 01:12:18;;;;;;;1.92;1.20;;;;;;;12.98;75.64;98337.03;5020655;27;104684;-68
2022/09/17 01:15:00;;;;;;;1.58;0.80;;;;;;;13.27;74.61;98340.66;5025697;27;103869;-69
2022/09/17 01:17:37;;;;;;;1.33;0.90;;;;;;;13.11;75.38;98335.00;5030559;27;103432;-69
2022/09/17 01:20:29;;;;;;;0.88;0.70;;;;;;;13.27;74.47;98340.66;5029662;27;103210;-68
2022/09/17 01:23:27;;;;;;;2.30;1.00;;;;;;;13.00;75.77;98336.88;5032231;27;102947;-68
2022/09/17 01:26:12;;;;;;;1.30;0.98;;;;;;;12.96;76.07;98341.63;5030044;27;103756;-68
2022/09/17 01:28:47;;;;;;;1.85;0.90;;;;;;;13.10;75.42;98343.94;5032285;27;103303;-68
2022/09/17 01:31:35;;;;;;;1.25;1.00;;;;;;;13.10;75.07;98343.09;5033149;27;103334;-68
2022/09/17 01:34:13;;;;;;;1.47;0.93;;;;;;;12.77;76.81;98333.63;5036993;27;102837;-68
2022/09/17 01:36:53;;;;;;;3.08;1.10;;;;;;;12.73;77.29;98335.69;5032681;27;104186;-68
2022/09/17 01:39:31;;;;;;;2.35;1.17;;;;;;;12.47;78.26;98346.81;5027340;27;104625;-68
2022/09/17 01:42:07;;;;;;;2.15;0.95;;;;;;;12.91;77.18;98343.84;5027012;27;103272;-68
2022/09/17 01:44:40;;;;;;;4.20;1.50;;;;;;;13.14;75.99;98348.00;5032573;27;102712;-68
2022/09/17 01:47:15;;;;;;;1.60;1.05;;;;;;;12.74;76.22;98352.44;5034395;27;102631;-68
2022/09/17 01:49:51;;;;;;;1.45;1.10;;;;;;;12.98;76.11;98352.09;5034144;27;103274;-68
2022/09/17 01:52:24;;;;;;;1.60;1.10;;;;;;;12.76;77.10;98351.31;5028838;27;104792;-72
2022/09/17 01:54:57;;;;;;;2.28;1.08;;;;;;;12.35;78.57;98350.53;5039160;27;102729;-71
2022/09/17 01:57:32;;;;;;;1.60;1.02;;;;;;;12.54;78.82;98348.84;5030039;27;102895;-71
2022/09/17 02:00:04;;;;;;;3.28;1.27;;;;;;;12.65;77.39;98353.22;5034109;27;103550;-71
2022/09/17 02:02:44;;;;;;;1.63;0.90;;;;;;;12.94;76.97;98350.69;5026005;27;104304;-71
2022/09/17 02:05:17;;;;;;;3.30;1.17;;;;;;;12.90;76.82;98355.41;5036075;27;102755;-71
2022/09/17 02:07:49;;;;;;;2.25;1.10;;;;;;;12.80;77.32;98357.19;5029659;27;102703;-71
2022/09/17 02:10:23;;;;;;;1.30;1.00;;;;;;;12.73;77.51;98354.25;5030475;27;104639;-72
2022/09/17 02:12:56;;;;;;;1.90;1.30;;;;;;;12.56;78.51;98356.66;5030929;27;103059;-72
2022/09/17 02:15:27;;;;;;;1.80;1.10;;;;;;;12.71;78.08;98352.69;5032034;27;103076;-72
2022/09/17 02:18:02;;;;;;;2.20;1.40;;;;;;;12.62;77.67;98353.47;5036174;27;104223;-72
2022/09/17 02:20:43;;;;;;;2.33;1.30;;;;;;;12.49;78.91;98347.56;5030447;27;103666;-71
2022/09/17 02:23:17;;;;;;;3.00;1.30;;;;;;;12.45;78.28;98349.63;5034046;27;103265;-72
2022/09/17 02:25:52;;;;;;;0.68;0.68;;;;;;;12.82;76.76;98338.50;5030520;27;102778;-72
2022/09/17 02:28:27;;;;;;;2.50;1.05;;;;;;;12.64;76.05;98346.22;5027821;27;104031;-71
2022/09/17 02:30:55;;;;;;;1.98;1.00;;;;;;;12.69;76.66;98336.06;5029892;27;103107;-71
2022/09/17 02:33:26;;;;;;;2.08;1.00;;;;;;;12.49;77.29;98347.56;5034050;27;103247;-72
2022/09/17 02:35:53;;;;;;;2.60;0.98;;;;;;;12.37;77.49;98340.66;5028693;27;102936;-72
2022/09/17 02:38:23;;;;;;;3.63;1.30;;;;;;;12.13;78.50;98344.38;5029903;27;102819;-71
2022/09/17 02:40:57;;;;;;;1.10;0.65;;;;;;;12.53;77.73;98338.38;5028473;27;103439;-71
2022/09/17 02:43:36;;;;;;;2.25;1.33;;;;;;;12.80;75.93;98344.75;5030341;27;103253;-71
2022/09/17 02:46:25;;;;;;;2.72;1.20;;;;;;;12.87;75.67;98339.78;5034908;27;102808;-73
2022/09/17 02:49:24;;;;;;;1.10;0.75;;;;;;;12.77;75.95;98336.25;5032571;27;102710;-73
2022/09/17 02:52:06;;;;;;;1.90;0.90;;;;;;;12.63;76.58;98333.97;5031497;27;103501;-72
2022/09/17 02:54:42;;;;;;;3.17;1.20;;;;;;;12.82;75.46;98334.03;5032749;27;103078;-72
2022/09/17 02:57:18;;;;;;;2.40;1.00;;;;;;;12.88;75.40;98335.31;5029471;27;102949;-72
2022/09/17 02:59:55;;;;;;;1.55;0.85;;;;;;;13.03;75.19;98333.97;5033117;27;103830;-72
2022/09/17 03:02:28;;;;;;;1.13;0.90;;;;;;;13.00;75.01;98336.88;5030209;27;104234;-73
2022/09/17 03:05:01;;;;;;;2.97;1.05;;;;;;;12.74;76.29;98325.94;5032328;27;103203;-73
2022/09/17 03:07:28;;;;;;;2.80;0.90;;;;;;;12.86;75.96;98324.00;5031879;27;102987;-73
2022/09/17 03:09:56;;;;;;;2.50;0.90;;;;;;;12.79;75.94;98329.00;5048522;27;102892;-73
2022/09/17 03:12:25;;;;;;;3.35;1.13;;;;;;;12.68;76.47;98331.75;5029062;27;104233;-72
2022/09/17 03:14:53;;;;;;;3.60;1.20;;;;;;;12.71;76.19;98340.28;5028567;27;103225;-72
2022/09/17 03:17:21;;;;;;;2.03;1.10;;;;;;;12.89;75.17;98334.31;5031343;27;102683;-73
2022/09/17 03:19:48;;;;;;;2.37;1.00;;;;;;;12.78;75.11;98337.91;5029680;27;103994;-72
2022/09/17 03:22:17;;;;;;;2.78;1.17;;;;;;;12.88;74.78;98338.81;5030251;27;104761;-72
2022/09/17 03:24:45;;;;;;;2.50;1.00;;;;;;;12.94;74.01;98332.97;5037202;27;103438;-73
2022/09/17 03:27:13;;;;;;;2.40;1.10;;;;;;;12.92;74.44;98334.91;5031252;27;103594;-72
2022/09/17 03:29:40;;;;;;;2.42;1.00;;;;;;;12.65;75.64;98327.56;5030313;27;102787;-72
2022/09/17 03:32:08;;;;;;;2.00;0.90;;;;;;;12.70;76.36;98335.09;5025016;27;104158;-73
2022/09/17 03:34:36;;;;;;;1.30;0.87;;;;;;;12.84;75.44;98334.75;5033400;27;103383;-72
2022/09/17 03:37:04;;;;;;;4.55;1.30;;;;;;;12.40;76.90;98343.88;5031128;27;102731;-73
2022/09/17 03:39:33;;;;;;;2.25;1.00;;;;;;;12.53;76.71;98343.66;5031495;27;103047;-72
2022/09/17 03:42:01;;;;;;;2.05;1.08;;;;;;;12.50;76.68;98343.91;5032293;27;103934;-72
2022/09/17 03:44:28;;;;;;;1.58;1.00;;;;;;;12.58;76.56;98347.59;5025900;27;103273;-72
2022/09/17 03:46:56;;;;;;;2.47;1.13;;;;;;;12.62;75.73;98348.19;5032541;27;103014;-73
2022/09/17 03:49:24;;;;;;;3.37;1.40;;;;;;;12.38;76.05;98350.28;5035691;27;102743;-73
2022/09/17 03:51:51;;;;;;;1.40;0.90;;;;;;;12.57;76.16;98347.75;5032038;27;103987;-72
2022/09/17 03:54:19;;;;;;;2.45;1.10;;;;;;;12.45;76.51;98362.88;5031594;27;103189;-72
2022/09/17 03:56:48;;;;;;;2.47;1.20;;;;;;;12.55;75.72;98358.44;5029207;27;103255;-73
2022/09/17 03:59:16;;;;;;;2.40;1.15;;;;;;;12.51;76.36;98354.41;5029874;27;102704;-72
2022/09/17 04:01:44;;;;;;;2.25;1.30;;;;;;;11.77;78.00;98368.63;5026011;27;103549;-72
2022/09/17 04:04:12;;;;;;;2.83;1.10;;;;;;;12.04;77.57;98368.16;5028748;27;103232;-72
2022/09/17 04:06:42;;;;;;;2.10;1.10;;;;;;;12.35;76.82;98372.53;5030376;27;102945;-73
2022/09/17 04:09:09;;;;;;;3.15;1.10;;;;;;;11.86;78.27;98375.81;5033691;27;104310;-73
2022/09/17 04:11:37;;;;;;;2.35;1.20;;;;;;;11.75;78.46;98372.38;5032556;27;103377;-72
2022/09/17 04:14:06;;;;;;;1.70;0.90;;;;;;;12.08;78.12;98367.78;5033305;27;103940;-72
2022/09/17 04:16:34;;;;;;;3.53;1.30;;;;;;;12.09;77.36;98372.13;5032536;27;102664;-72
2022/09/17 04:19:02;;;;;;;2.40;1.15;;;;;;;12.33;76.02;98365.69;5032303;27;104196;-72
2022/09/17 04:21:30;;;;;;;3.03;1.30;;;;;;;12.19;76.47;98374.81;5030025;27;103259;-72
2022/09/17 04:23:58;;;;;;;2.45;1.25;;;;;;;12.09;77.40;98366.81;5032579;27;103261;-72
2022/09/17 04:26:26;;;;;;;3.22;1.10;;;;;;;12.05;77.04;98375.97;5030460;27;102917;-72
2022/09/17 04:28:54;;;;;;;2.47;1.20;;;;;;;12.13;76.80;98373.53;5032512;27;103923;-72
2022/09/17 04:31:25;;;;;;;3.45;1.17;;;;;;;12.17;77.63;98369.66;5028658;27;103674;-72
2022/09/17 04:33:54;;;;;;;2.88;1.10;;;;;;;12.44;76.42;98376.22;5029635;27;103164;-72
2022/09/17 04:36:21;;;;;;;2.38;1.10;;;;;;;12.39;76.34;98378.44;5026587;27;102773;-72
2022/09/17 04:38:49;;;;;;;4.35;1.15;;;;;;;12.39;76.26;98379.28;5028554;27;104133;-72
2022/09/17 04:41:17;;;;;;;1.83;1.02;;;;;;;12.60;75.65;98384.56;5028318;27;103518;-73
2022/09/17 04:43:45;;;;;;;2.67;1.30;;;;;;;12.45;76.58;98391.16;5031068;27;103466;-72
2022/09/17 04:46:13;;;;;;;2.63;1.20;;;;;;;12.07;77.12;98395.22;5029228;27;102809;-72
2022/09/17 04:48:42;;;;;;;3.28;1.40;;;;;;;11.99;78.01;98399.47;5032849;27;104555;-74
2022/09/17 04:51:10;;;;;;;4.70;1.17;;;;;;;12.15;77.67;98398.06;5030261;27;103341;-74
2022/09/17 04:53:38;;;;;;;2.72;1.20;;;;;;;12.15;76.68;98398.06;5032723;27;103419;-74
2022/09/17 04:56:08;;;;;;;4.25;1.25;;;;;;;12.03;76.89;98399.09;5036463;27;102699;-74
2022/09/17 04:58:36;;;;;;;2.53;1.40;;;;;;;11.92;77.24;98395.66;5035361;27;102894;-74
2022/09/17 05:01:04;;;;;;;3.72;1.70;;;;;;;11.99;76.34;98399.47;5032688;27;104547;-73
2022/09/17 05:03:32;;;;;;;4.53;1.30;;;;;;;12.12;77.54;98402.78;5036782;27;103235;-72
2022/09/17 05:06:01;;;;;;;5.25;1.60;;;;;;;12.07;76.68;98395.22;5035413;27;102824;-72
2022/09/17 05:08:28;;;;;;;4.53;1.20;;;;;;;12.02;76.37;98407.16;5040586;27;103662;-72
2022/09/17 05:10:56;;;;;;;2.92;1.40;;;;;;;11.89;77.34;98409.13;5034704;27;104554;-71
2022/09/17 05:13:24;;;;;;;2.75;1.15;;;;;;;12.14;77.24;98406.16;5032390;27;103457;-71
2022/09/17 05:15:53;;;;;;;3.37;1.57;;;;;;;12.03;76.63;98411.50;5031670;27;102886;-71
2022/09/17 05:18:21;;;;;;;2.95;1.40;;;;;;;11.88;76.99;98399.50;5034337;27;103211;-70
2022/09/17 05:20:49;;;;;;;4.15;1.20;;;;;;;11.92;77.39;98400.94;5037856;27;103843;-70
2022/09/17 05:23:19;;;;;;;3.53;1.30;;;;;;;12.08;77.39;98401.34;5039152;27;103066;-69
2022/09/17 05:25:46;;;;;;;2.93;1.40;;;;;;;12.07;76.50;98408.44;5031212;27;103229;-70
2022/09/17 05:28:14;;;;;;;3.22;1.40;;;;;;;12.20;76.21;98411.78;5041166;27;103565;-75
2022/09/17 05:30:42;;;;;;;5.35;1.58;;;;;;;11.86;76.56;98407.59;5035532;27;103324;-75
2022/09/17 05:33:10;;;;;;;3.80;1.80;;;;;;;11.83;77.60;98399.03;5026786;27;103295;-72
2022/09/17 05:35:37;;;;;;;4.25;1.48;;;;;;;11.80;77.37;98408.09;5036177;27;103000;-71
2022/09/17 05:38:07;;;;;;;2.92;1.27;;;;;;;12.00;77.06;98411.75;5033779;27;103969;-75
2022/09/17 05:40:37;;;;;;;4.07;1.40;;;;;;;12.27;75.76;98413.94;5032101;27;104258;-75
2022/09/17 05:43:06;;;;;;;2.83;1.40;;;;;;;12.27;75.64;98411.28;5029156;27;103290;-71
2022/09/17 05:45:36;;;;;;;2.95;1.25;;;;;;;11.89;76.94;98417.06;5033304;27;102693;-70
2022/09/17 05:48:06;;;;;;;2.45;1.23;;;;;;;12.45;75.94;98417.66;5036098;27;102965;-70
2022/09/17 05:50:36;;;;;;;2.40;1.30;;;;;;;12.23;76.04;98420.44;5028278;27;103322;-71
2022/09/17 05:53:05;;;;;;;3.50;1.57;;;;;;;12.34;76.26;98423.03;5031133;27;103199;-71
2022/09/17 05:55:33;;;;;;;2.33;1.40;;;;;;;12.30;75.11;98422.44;5025952;27;103379;-71
2022/09/17 05:58:11;;;;;;;3.30;1.10;;;;;;;12.57;75.29;98421.94;5032842;27;103945;-71
2022/09/17 06:00:39;;;;;;;3.45;1.30;;;;;;;12.62;75.26;98422.38;5034166;27;104371;-71
2022/09/17 06:03:11;;;;;;;5.78;1.88;;;;;;;12.27;76.52;98437.75;5033944;27;103221;-71
2022/09/17 06:05:39;;;;;;;3.05;1.48;;;;;;;12.63;75.43;98421.41;5028917;27;103085;-71
2022/09/17 06:08:07;;;;;;;3.70;1.60;;;;;;;12.65;75.79;98433.56;5030184;27;103781;-71
2022/09/17 06:10:36;;;;;;;4.05;1.60;;;;;;;12.25;75.81;98429.94;5032813;27;104179;-71
2022/09/17 06:13:04;;;;;;;4.60;1.55;;;;;;;12.29;75.67;98435.81;5030673;27;103286;-71
2022/09/17 06:15:33;;;;;;;3.37;1.60;;;;;;;12.02;76.89;98438.91;5035621;27;102886;-72
2022/09/17 06:18:01;;;;;;;4.30;1.70;;;;;;;12.23;76.74;98446.91;5030786;27;103993;-72
2022/09/17 06:20:29;;;;;;;4.77;1.67;;;;;;;12.44;75.55;98445.97;5030944;27;104531;-72
2022/09/17 06:22:59;;;;;;;4.47;1.70;;;;;;;12.20;75.83;98461.25;5034916;27;103221;-71
2022/09/17 06:25:28;;;;;;;4.00;1.70;;;;;;;12.69;74.52;98455.31;5034164;27;103878;-71
2022/09/17 06:27:56;;;;;;;4.80;1.52;;;;;;;12.52;75.34;98461.25;5034175;27;102966;-72
2022/09/17 06:30:23;;;;;;;3.97;1.33;;;;;;;12.19;76.94;98468.34;5033205;27;102741;-72
2022/09/17 06:32:52;;;;;;;4.35;1.65;;;;;;;12.45;75.63;98460.91;5035624;27;103307;-72
2022/09/17 06:35:20;;;;;;;3.95;1.60;;;;;;;11.92;76.70;98465.31;5036568;27;102821;-71
2022/09/17 06:37:48;;;;;;;4.53;1.50;;;;;;;12.36;75.57;98463.47;5034078;27;103221;-72
2022/09/17 06:40:16;;;;;;;4.85;1.50;;;;;;;12.72;75.25;98460.38;5034460;27;103780;-72
2022/09/17 06:42:44;;;;;;;4.03;1.52;;;;;;;12.84;73.22;98464.66;5030975;27;103022;-71
2022/09/17 06:45:12;;;;;;;3.38;1.63;;;;;;;12.46;74.45;98464.41;5025663;27;102869;-72
2022/09/17 06:47:43;;;;;;;3.50;1.48;;;;;;;11.91;76.22;98470.72;5033714;27;104069;-71
2022/09/17 06:50:13;;;;;;;3.03;1.73;;;;;;;12.30;75.46;98466.63;5031068;27;104373;-72
2022/09/17 06:52:48;;;;;;;3.83;1.77;;;;;;;12.16;75.61;98476.53;5030676;27;103233;-72
2022/09/17 06:55:18;;;;;;;4.15;1.50;;;;;;;12.48;74.74;98475.69;5031443;27;104585;-71
2022/09/17 06:57:46;;;;;;;4.47;2.10;;;;;;;12.44;74.66;98471.59;5033795;27;103621;-70
2022/09/17 07:00:14;;;;;;;5.65;2.10;;;;;;;12.27;74.65;98466.91;5032084;27;104523;-72
2022/09/17 07:02:42;;;;;;;4.47;1.70;;;;;;;12.58;74.61;98474.78;5035678;27;103325;-72
2022/09/17 07:05:10;;;;;;;3.58;1.98;;;;;;;12.25;76.05;98482.03;5025906;27;102642;-72
2022/09/17 07:07:39;;;;;;;4.70;1.80;;;;;;;12.17;76.46;98480.03;5034763;27;103886;-70
2022/09/17 07:10:09;;;;;;;4.27;1.70;;;;;;;12.46;77.20;98485.59;5033502;27;104348;-72
2022/09/17 07:12:40;;;;;;;3.03;1.52;;;;;;;12.29;78.01;98483.50;5033387;27;103240;-72
2022/09/17 07:15:14;;;;;;;2.88;1.65;;;;;;;12.30;77.74;98490.44;5031077;27;106844;-72
2022/09/17 07:17:43;;;;;;;3.00;1.70;;;;;;;12.29;79.70;98496.72;5036717;27;102987;-72
2022/09/17 07:20:11;;;;;;;3.42;1.77;;;;;;;11.65;80.42;98500.09;5030602;27;103505;-72
2022/09/17 07:22:40;;;;;;;5.37;1.70;;;;;;;12.13;79.79;98495.34;5028811;27;103602;-72
2022/09/17 07:25:09;;;;;;;3.53;1.65;;;;;;;12.16;80.50;98499.53;5031148;27;103558;-72
2022/09/17 07:27:37;;;;;;;3.50;1.53;;;;;;;12.02;79.85;98505.97;5036911;27;103537;-72
2022/09/17 07:30:08;;;;;;;3.70;1.70;;;;;;;12.33;79.20;98506.09;5034090;27;103582;-71
2022/09/17 07:32:36;;;;;;;3.55;1.63;;;;;;;12.15;80.21;98503.16;5030606;27;103255;-72
2022/09/17 07:35:04;;;;;;;4.17;1.73;;;;;;;12.42;79.48;98510.63;5033553;27;102601;-73
2022/09/17 07:37:32;;;;;;;2.20;1.45;;;;;;;12.49;79.35;98519.78;5029199;27;102702;-72
2022/09/17 07:40:05;;;;;;;4.53;1.70;;;;;;;12.41;81.87;98519.53;5026864;27;103636;-72
2022/09/17 07:42:33;;;;;;;1.88;1.55;;;;;;;12.06;84.56;98523.28;5034173;27;103052;-72
2022/09/17 07:45:00;;;;;;;2.28;1.30;;;;;;;12.56;82.43;98513.00;5025744;27;102658;-72
2022/09/17 07:47:29;;;;;;;3.33;1.85;;;;;;;12.24;83.63;98515.63;5029092;27;103730;-73
2022/09/17 07:49:58;;;;;;;2.50;1.58;;;;;;;12.31;84.80;98524.78;5031102;27;105215;-73
2022/09/17 07:52:27;;;;;;;3.15;1.77;;;;;;;12.64;83.33;98518.50;5032997;27;103549;-73
2022/09/17 07:54:55;;;;;;;3.50;1.73;;;;;;;12.48;82.90;98526.03;5037949;27;102710;-72
2022/09/17 07:57:24;;;;;;;3.00;1.38;;;;;;;12.86;81.34;98521.00;5034319;27;102686;-72
2022/09/17 07:59:51;;;;;;;3.17;1.60;;;;;;;13.05;80.59;98521.13;5034480;27;104063;-73
2022/09/17 08:02:20;;;;;;;2.88;1.60;;;;;;;12.99;81.12;98518.19;5034938;27;103469;-72
2022/09/17 08:04:51;;;;;;;3.00;1.50;;;;;;;12.85;82.70;98529.13;5034031;27;103151;-73
2022/09/17 08:07:19;;;;;;;2.90;1.80;;;;;;;12.80;81.19;98534.78;5029286;27;103098;-73
2022/09/17 08:09:47;;;;;;;5.53;2.10;;;;;;;12.68;82.21;98534.03;5035788;27;104238;-73
2022/09/17 08:12:17;;;;;;;3.00;1.73;;;;;;;12.51;81.60;98531.94;5030268;27;103205;-72
2022/09/17 08:14:48;;;;;;;2.60;1.87;;;;;;;12.76;80.79;98530.72;5033773;27;104117;-73
2022/09/17 08:17:16;;;;;;;5.18;1.90;;;;;;;12.75;79.99;98534.34;5037854;27;103241;-73
2022/09/17 08:19:44;;;;;;;3.85;1.90;;;;;;;12.93;79.80;98534.59;5039039;27;103422;-73
2022/09/17 08:22:12;;;;;;;4.57;1.88;;;;;;;12.92;79.86;98536.41;5033206;27;103308;-73
2022/09/17 08:24:42;;;;;;;4.30;2.60;;;;;;;12.51;80.42;98536.38;5037410;27;102789;-73
2022/09/17 08:27:10;;;;;;;4.80;1.95;;;;;;;12.58;81.12;98534.91;5037182;27;104000;-74
2022/09/17 08:29:38;;;;;;;3.60;1.80;;;;;;;13.05;77.62;98537.06;5036800;27;104346;-73
2022/09/17 08:32:07;;;;;;;4.40;2.05;;;;;;;13.13;78.90;98529.34;5039025;27;103184;-73
2022/09/17 08:34:36;;;;;;;5.82;1.85;;;;;;;13.54;78.01;98524.91;5051828;27;103110;-73
2022/09/17 08:37:03;;;;;;;4.07;2.15;;;;;;;13.47;76.99;98532.59;5040036;27;103658;-71
2022/09/17 08:39:31;;;;;;;5.80;2.30;;;;;;;12.89;78.57;98535.81;5039767;27;103318;-71
2022/09/17 08:42:10;;;;;;;5.20;2.10;;;;;;;13.12;79.36;98532.94;5036065;27;103344;-72
2022/09/17 08:44:41;;;;;;;4.35;1.90;;;;;;;13.27;77.79;98523.69;5038002;27;102916;-72
2022/09/17 08:47:17;;;;;;;7.07;2.25;;;;;;;13.26;77.68;98524.66;5031388;27;103787;-71
2022/09/17 08:49:50;;;;;;;7.82;2.35;;;;;;;13.39;76.48;98520.97;5035583;27;104063;-70
2022/09/17 08:52:48;;;;;;;7.53;2.47;;;;;;;13.63;75.56;98526.78;5032145;27;104612;-70
2022/09/17 08:55:32;;;;;;;6.25;2.10;;;;;;;14.00;75.75;98533.19;5029152;27;102714;-70
2022/09/17 08:58:26;;;;;;;5.65;2.50;;;;;;;13.55;74.46;98534.56;5032693;27;102850;-71
2022/09/17 09:00:57;;;;;;;6.18;2.17;;;;;;;13.88;74.04;98539.56;5033755;27;104479;-71
2022/09/17 09:03:40;;;;;;;7.88;2.25;;;;;;;14.14;73.79;98542.59;5028868;27;103388;-71
2022/09/17 09:06:08;;;;;;;7.18;2.33;;;;;;;13.60;75.02;98548.28;5037890;27;102686;-71
2022/09/17 09:08:41;;;;;;;7.28;2.50;;;;;;;13.62;74.93;98538.34;5036078;27;103941;-70
2022/09/17 09:11:16;;;;;;;4.88;2.35;;;;;;;14.00;73.94;98546.47;5034379;27;103665;-69
2022/09/17 09:13:48;;;;;;;6.07;2.13;;;;;;;13.98;74.14;98543.09;5030174;27;103983;-72
2022/09/17 09:16:18;;;;;;;6.40;2.23;;;;;;;13.74;73.95;98551.41;5033790;27;103049;-71
2022/09/17 09:18:51;;;;;;;5.10;1.80;;;;;;;13.54;73.92;98547.00;5032066;27;103102;-72
2022/09/17 09:21:27;;;;;;;8.10;2.33;;;;;;;13.85;72.87;98542.50;5035970;27;104658;-70
2022/09/17 09:23:57;;;;;;;7.72;2.40;;;;;;;13.36;74.68;98533.50;5030241;27;103289;-70
2022/09/17 09:26:40;;;;;;;6.40;2.35;;;;;;;13.51;74.07;98538.44;5024252;27;103216;-71
2022/09/17 09:29:18;;;;;;;10.07;2.20;;;;;;;13.33;73.95;98536.41;5029304;27;103497;-70
2022/09/17 09:32:06;;;;;;;5.23;2.70;;;;;;;14.54;72.34;98543.34;5022577;27;103706;-71
2022/09/17 09:34:48;;;;;;;7.80;2.40;;;;;;;14.12;71.95;98544.56;5019941;27;103597;-70
2022/09/17 09:37:19;;;;;;;6.97;2.23;;;;;;;14.31;71.92;98533.94;5026910;27;102743;-70
2022/09/17 09:39:52;;;;;;;6.57;3.20;;;;;;;14.40;72.51;98541.94;5014967;27;103066;-69
2022/09/17 09:42:30;;;;;;;5.78;2.30;;;;;;;14.15;72.78;98539.78;5032918;27;103763;-69
2022/09/17 09:45:01;;;;;;;6.03;2.30;;;;;;;14.43;72.40;98538.16;5029796;27;103178;-69
2022/09/17 09:47:47;;;;;;;3.40;1.67;;;;;;;14.42;72.97;98540.00;5032223;27;102764;-69
2022/09/17 09:50:29;;;;;;;6.38;2.40;;;;;;;14.25;70.94;98543.31;5034429;27;103760;-72
2022/09/17 09:53:29;;;;;;;7.28;2.50;;;;;;;14.00;71.49;98548.28;5035707;27;104154;-71
2022/09/17 09:56:10;;;;;;;7.78;2.30;;;;;;;14.04;71.99;98537.25;5032293;27;103304;-71
2022/09/17 09:58:39;;;;;;;4.13;1.90;;;;;;;14.36;71.74;98545.88;5035994;27;103121;-70
2022/09/17 10:01:12;;;;;;;4.63;1.97;;;;;;;14.56;70.62;98545.88;5032628;27;103993;-70
2022/09/17 10:03:44;;;;;;;3.55;2.00;;;;;;;14.58;70.84;98542.09;5030455;27;103208;-69
2022/09/17 10:06:15;;;;;;;7.47;2.80;;;;;;;14.33;69.61;98546.16;5030294;27;103357;-69
2022/09/17 10:09:10;;;;;;;4.20;1.85;;;;;;;14.46;70.60;98541.41;5031079;27;102733;-69
2022/09/17 10:11:38;;;;;;;5.68;2.00;;;;;;;14.62;69.81;98534.69;5039155;27;102828;-70
2022/09/17 10:14:31;;;;;;;4.20;1.90;;;;;;;14.43;69.56;98543.47;5030843;27;104416;-72
2022/09/17 10:17:12;;;;;;;4.43;1.83;;;;;;;14.11;71.63;98541.03;5011139;27;103326;-72
2022/09/17 10:19:40;;;;;;;7.18;1.90;;;;;;;14.12;70.21;98539.22;5027112;27;102787;-72
2022/09/17 10:22:24;;;;;;;6.07;1.90;;;;;;;14.92;68.17;98539.84;5028351;27;103117;-72
2022/09/17 10:24:53;;;;;;;4.95;1.92;;;;;;;15.27;67.71;98536.59;5026764;27;106191;-72
2022/09/17 10:27:25;;;;;;;6.15;2.35;;;;;;;15.31;67.09;98522.84;5022938;27;105676;-72
2022/09/17 10:30:02;;;;;;;5.57;2.22;;;;;;;15.69;67.52;98524.53;5030277;27;102863;-72
2022/09/17 10:32:32;;;;;;;4.95;1.83;;;;;;;15.52;65.13;98517.34;5029536;27;102779;-74
2022/09/17 10:35:05;;;;;;;4.55;1.70;;;;;;;14.98;66.22;98524.19;5029682;27;104663;-73
2022/09/17 10:37:42;;;;;;;5.30;1.95;;;;;;;15.76;66.22;98519.47;5030369;27;103388;-72
2022/09/17 10:40:29;;;;;;;3.75;1.90;;;;;;;15.55;64.64;98517.88;5026851;27;102920;-72
2022/09/17 10:43:22;;;;;;;4.30;1.83;;;;;;;15.83;63.52;98516.06;5035254;27;103365;-71
2022/09/17 10:45:58;;;;;;;4.38;1.80;;;;;;;16.83;63.41;98516.78;5032652;27;103792;-72
2022/09/17 10:48:30;;;;;;;5.25;2.13;;;;;;;17.25;59.74;98508.94;5033517;27;103415;-72
2022/09/17 10:51:01;;;;;;;3.67;1.65;;;;;;;16.98;59.86;98503.75;5032630;27;102924;-71
2022/09/17 10:53:52;;;;;;;3.95;1.70;;;;;;;16.92;57.86;98504.34;5040951;27;104487;-71
2022/09/17 10:56:29;;;;;;;5.32;1.90;;;;;;;17.36;59.95;98497.97;5027963;27;104001;-67
2022/09/17 10:59:18;;;;;;;4.13;1.40;;;;;;;16.29;59.73;98496.44;5025200;27;103926;-68
2022/09/17 11:01:58;;;;;;;3.30;1.10;;;;;;;17.00;58.27;98491.06;5031292;27;104154;-68
2022/09/17 11:04:33;;;;;;;4.50;1.45;;;;;;;17.64;58.02;98496.81;5036343;27;103889;-68
2022/09/17 11:07:26;;;;;;;4.13;1.40;;;;;;;17.44;57.71;98500.69;5030754;27;104307;-71
2022/09/17 11:10:04;;;;;;;3.22;1.38;;;;;;;16.79;56.90;98502.91;5033146;27;103471;-70
2022/09/17 11:12:44;;;;;;;4.93;1.52;;;;;;;17.30;56.07;98496.78;5038572;27;102759;-70
2022/09/17 11:15:28;;;;;;;4.05;1.40;;;;;;;16.66;57.33;98502.47;5028999;27;102828;-70
2022/09/17 11:18:14;;;;;;;2.83;1.30;;;;;;;17.62;55.09;98493.47;5028864;27;103866;-70
2022/09/17 11:21:11;;;;;;;3.83;1.35;;;;;;;17.51;56.30;98501.75;5021603;27;104535;-70
2022/09/17 11:24:07;;;;;;;2.58;1.20;;;;;;;17.27;55.47;98496.25;5029522;27;102846;-70
2022/09/17 11:26:41;;;;;;;2.85;1.13;;;;;;;17.68;55.28;98486.66;5029025;27;103882;-70
2022/09/17 11:29:31;;;;;;;3.53;1.40;;;;;;;17.12;55.76;98469.28;5028408;27;104476;-70
2022/09/17 11:32:10;;;;;;;3.07;1.27;;;;;;;17.47;55.45;98473.66;5030124;27;103656;-70
2022/09/17 11:34:43;;;;;;;3.95;1.50;;;;;;;17.15;56.15;98468.97;5033154;27;104065;-70
2022/09/17 11:37:19;;;;;;;4.78;1.45;;;;;;;18.01;55.16;98472.41;5031908;27;103093;-71
2022/09/17 11:39:51;;;;;;;2.75;1.20;;;;;;;17.96;51.67;98474.75;5026588;27;103879;-71
2022/09/17 11:42:24;;;;;;;3.20;1.17;;;;;;;18.23;51.45;98468.28;5030527;27;102941;-71
2022/09/17 11:44:57;;;;;;;4.32;1.13;;;;;;;18.01;52.23;98469.75;5033553;27;102967;-71
2022/09/17 11:47:29;;;;;;;3.58;1.20;;;;;;;17.96;52.26;98474.75;5027634;27;103844;-70
2022/09/17 11:50:01;;;;;;;3.28;1.30;;;;;;;17.78;54.21;98466.81;5028308;27;103495;-71